sensor_id;sensor_type;location;lat;lon;timestamp;P1;durP1;ratioP1;P2;durP2;ratioP2
38994;SDS011;24769;18.712;99.000;2023-03-18T00:00:03;81.60;;;79.80;;
38994;SDS011;24769;18.712;99.000;2023-03-18T00:02:37;80.80;;;78.80;;
38994;SDS011;24769;18.712;99.000;2023-03-18T00:05:05;81.40;;;80.20;;
38994;SDS011;24769;18.712;99.000;2023-03-18T00:07:33;78.40;;;74.00;;
38994;SDS011;24769;18.712;99.000;2023-03-18T00:10:00;80.40;;;74.40;;
38994;SDS011;24769;18.712;99.000;2023-03-18T00:12:28;82.00;;;80.60;;
38994;SDS011;24769;18.712;99.000;2023-03-18T00:14:56;83.60;;;81.20;;
38994;SDS011;24769;18.712;99.000;2023-03-18T00:17:24;79.20;;;75.60;;
38994;SDS011;24769;18.712;99.000;2023-03-18T00:19:51;83.20;;;81.20;;
38994;SDS011;24769;18.712;99.000;2023-03-18T00:22:18;87.80;;;84.20;;
38994;SDS011;24769;18.712;99.000;2023-03-18T00:24:44;82.40;;;80.60;;
38994;SDS011;24769;18.712;99.000;2023-03-18T00:27:11;86.00;;;83.20;;
38994;SDS011;24769;18.712;99.000;2023-03-18T00:29:38;89.20;;;85.80;;
38994;SDS011;24769;18.712;99.000;2023-03-18T00:32:05;90.20;;;89.00;;
38994;SDS011;24769;18.712;99.000;2023-03-18T00:34:31;90.60;;;88.80;;
38994;SDS011;24769;18.712;99.000;2023-03-18T00:36:58;82.80;;;81.80;;
38994;SDS011;24769;18.712;99.000;2023-03-18T00:39:24;89.20;;;88.20;;
38994;SDS011;24769;18.712;99.000;2023-03-18T00:41:58;85.80;;;83.60;;
38994;SDS011;24769;18.712;99.000;2023-03-18T00:44:32;88.20;;;86.40;;
38994;SDS011;24769;18.712;99.000;2023-03-18T00:46:58;82.60;;;81.80;;
38994;SDS011;24769;18.712;99.000;2023-03-18T00:49:25;84.60;;;82.00;;
38994;SDS011;24769;18.712;99.000;2023-03-18T00:51:52;85.20;;;83.60;;
38994;SDS011;24769;18.712;99.000;2023-03-18T00:54:18;80.60;;;77.20;;
38994;SDS011;24769;18.712;99.000;2023-03-18T00:56:45;77.80;;;72.40;;
38994;SDS011;24769;18.712;99.000;2023-03-18T00:59:12;77.20;;;71.80;;
38994;SDS011;24769;18.712;99.000;2023-03-18T01:01:39;80.40;;;76.80;;
38994;SDS011;24769;18.712;99.000;2023-03-18T01:04:06;75.60;;;68.60;;
38994;SDS011;24769;18.712;99.000;2023-03-18T01:06:36;78.80;;;74.00;;
38994;SDS011;24769;18.712;99.000;2023-03-18T01:09:03;78.20;;;72.80;;
38994;SDS011;24769;18.712;99.000;2023-03-18T01:11:33;78.20;;;73.20;;
38994;SDS011;24769;18.712;99.000;2023-03-18T01:14:00;77.80;;;73.00;;
38994;SDS011;24769;18.712;99.000;2023-03-18T01:16:27;80.40;;;76.80;;
38994;SDS011;24769;18.712;99.000;2023-03-18T01:18:54;78.40;;;72.60;;
38994;SDS011;24769;18.712;99.000;2023-03-18T01:21:21;77.75;;;72.25;;
38994;SDS011;24769;18.712;99.000;2023-03-18T01:23:48;77.75;;;69.50;;
38994;SDS011;24769;18.712;99.000;2023-03-18T01:26:15;77.00;;;71.25;;
38994;SDS011;24769;18.712;99.000;2023-03-18T01:28:42;74.50;;;66.75;;
38994;SDS011;24769;18.712;99.000;2023-03-18T01:31:09;74.75;;;68.00;;
38994;SDS011;24769;18.712;99.000;2023-03-18T01:33:36;69.00;;;56.25;;
38994;SDS011;24769;18.712;99.000;2023-03-18T01:36:04;76.50;;;70.75;;
38994;SDS011;24769;18.712;99.000;2023-03-18T01:38:32;77.00;;;71.75;;
38994;SDS011;24769;18.712;99.000;2023-03-18T01:40:59;73.25;;;65.75;;
38994;SDS011;24769;18.712;99.000;2023-03-18T01:43:28;72.75;;;64.00;;
38994;SDS011;24769;18.712;99.000;2023-03-18T01:45:58;73.25;;;64.75;;
38994;SDS011;24769;18.712;99.000;2023-03-18T01:48:27;76.75;;;71.25;;
38994;SDS011;24769;18.712;99.000;2023-03-18T01:50:57;77.50;;;71.75;;
38994;SDS011;24769;18.712;99.000;2023-03-18T01:53:30;75.75;;;70.50;;
38994;SDS011;24769;18.712;99.000;2023-03-18T01:56:04;77.25;;;71.00;;
38994;SDS011;24769;18.712;99.000;2023-03-18T01:58:35;73.00;;;64.25;;
38994;SDS011;24769;18.712;99.000;2023-03-18T02:03:57;75.25;;;69.00;;
38994;SDS011;24769;18.712;99.000;2023-03-18T02:06:26;77.25;;;71.75;;
38994;SDS011;24769;18.712;99.000;2023-03-18T02:08:54;72.50;;;64.75;;
38994;SDS011;24769;18.712;99.000;2023-03-18T02:11:21;74.75;;;67.50;;
38994;SDS011;24769;18.712;99.000;2023-03-18T02:13:48;67.75;;;57.00;;
38994;SDS011;24769;18.712;99.000;2023-03-18T02:16:24;71.50;;;63.50;;
38994;SDS011;24769;18.712;99.000;2023-03-18T02:19:02;73.50;;;64.75;;
38994;SDS011;24769;18.712;99.000;2023-03-18T02:27:55;77.50;;;73.50;;
38994;SDS011;24769;18.712;99.000;2023-03-18T02:30:26;75.25;;;70.25;;
38994;SDS011;24769;18.712;99.000;2023-03-18T02:32:57;76.00;;;71.25;;
38994;SDS011;24769;18.712;99.000;2023-03-18T02:35:25;77.75;;;74.00;;
38994;SDS011;24769;18.712;99.000;2023-03-18T02:37:53;72.25;;;63.75;;
38994;SDS011;24769;18.712;99.000;2023-03-18T02:40:25;68.25;;;58.50;;
38994;SDS011;24769;18.712;99.000;2023-03-18T02:42:57;77.50;;;74.00;;
38994;SDS011;24769;18.712;99.000;2023-03-18T02:48:21;76.25;;;70.75;;
38994;SDS011;24769;18.712;99.000;2023-03-18T02:50:52;74.25;;;68.25;;
38994;SDS011;24769;18.712;99.000;2023-03-18T02:53:19;75.25;;;68.50;;
38994;SDS011;24769;18.712;99.000;2023-03-18T02:55:46;73.25;;;67.50;;
38994;SDS011;24769;18.712;99.000;2023-03-18T02:58:13;74.00;;;67.50;;
38994;SDS011;24769;18.712;99.000;2023-03-18T03:00:40;75.00;;;70.25;;
38994;SDS011;24769;18.712;99.000;2023-03-18T03:03:07;74.25;;;69.50;;
38994;SDS011;24769;18.712;99.000;2023-03-18T03:05:33;76.00;;;69.50;;
38994;SDS011;24769;18.712;99.000;2023-03-18T03:08:00;75.25;;;69.75;;
38994;SDS011;24769;18.712;99.000;2023-03-18T03:10:27;70.75;;;62.25;;
38994;SDS011;24769;18.712;99.000;2023-03-18T03:12:55;72.00;;;65.00;;
38994;SDS011;24769;18.712;99.000;2023-03-18T03:15:22;74.25;;;67.00;;
38994;SDS011;24769;18.712;99.000;2023-03-18T03:17:49;74.25;;;68.25;;
38994;SDS011;24769;18.712;99.000;2023-03-18T03:20:15;72.25;;;64.50;;
38994;SDS011;24769;18.712;99.000;2023-03-18T03:22:42;74.50;;;68.75;;
38994;SDS011;24769;18.712;99.000;2023-03-18T03:25:10;72.50;;;65.75;;
38994;SDS011;24769;18.712;99.000;2023-03-18T03:27:37;74.00;;;68.25;;
38994;SDS011;24769;18.712;99.000;2023-03-18T03:30:05;71.25;;;63.75;;
38994;SDS011;24769;18.712;99.000;2023-03-18T03:32:34;71.25;;;63.50;;
38994;SDS011;24769;18.712;99.000;2023-03-18T03:35:00;71.00;;;62.20;;
38994;SDS011;24769;18.712;99.000;2023-03-18T03:37:29;66.60;;;56.80;;
38994;SDS011;24769;18.712;99.000;2023-03-18T03:39:56;71.20;;;62.80;;
38994;SDS011;24769;18.712;99.000;2023-03-18T03:42:24;65.00;;;53.60;;
38994;SDS011;24769;18.712;99.000;2023-03-18T03:44:50;69.60;;;60.20;;
38994;SDS011;24769;18.712;99.000;2023-03-18T03:47:17;69.40;;;60.60;;
38994;SDS011;24769;18.712;99.000;2023-03-18T03:49:45;70.60;;;62.60;;
38994;SDS011;24769;18.712;99.000;2023-03-18T03:52:12;70.20;;;61.60;;
38994;SDS011;24769;18.712;99.000;2023-03-18T03:54:39;70.20;;;61.80;;
38994;SDS011;24769;18.712;99.000;2023-03-18T03:57:06;72.40;;;66.20;;
38994;SDS011;24769;18.712;99.000;2023-03-18T03:59:33;72.60;;;66.80;;
38994;SDS011;24769;18.712;99.000;2023-03-18T04:02:00;69.20;;;61.60;;
38994;SDS011;24769;18.712;99.000;2023-03-18T04:04:27;69.00;;;59.20;;
38994;SDS011;24769;18.712;99.000;2023-03-18T04:06:54;64.00;;;53.20;;
38994;SDS011;24769;18.712;99.000;2023-03-18T04:09:22;69.80;;;61.80;;
38994;SDS011;24769;18.712;99.000;2023-03-18T04:11:49;71.20;;;64.20;;
38994;SDS011;24769;18.712;99.000;2023-03-18T04:14:16;68.00;;;59.20;;
38994;SDS011;24769;18.712;99.000;2023-03-18T04:16:43;69.00;;;60.60;;
38994;SDS011;24769;18.712;99.000;2023-03-18T04:19:09;70.20;;;61.60;;
38994;SDS011;24769;18.712;99.000;2023-03-18T04:21:36;72.40;;;67.00;;
38994;SDS011;24769;18.712;99.000;2023-03-18T04:24:03;73.40;;;66.20;;
38994;SDS011;24769;18.712;99.000;2023-03-18T04:26:31;69.00;;;61.40;;
38994;SDS011;24769;18.712;99.000;2023-03-18T04:28:57;66.60;;;58.00;;
38994;SDS011;24769;18.712;99.000;2023-03-18T04:31:24;70.00;;;62.00;;
38994;SDS011;24769;18.712;99.000;2023-03-18T04:33:51;71.40;;;63.80;;
38994;SDS011;24769;18.712;99.000;2023-03-18T04:36:18;68.40;;;59.20;;
38994;SDS011;24769;18.712;99.000;2023-03-18T04:38:44;67.80;;;58.80;;
38994;SDS011;24769;18.712;99.000;2023-03-18T04:41:11;70.00;;;62.20;;
38994;SDS011;24769;18.712;99.000;2023-03-18T04:43:38;67.80;;;58.80;;
38994;SDS011;24769;18.712;99.000;2023-03-18T04:46:04;66.20;;;55.00;;
38994;SDS011;24769;18.712;99.000;2023-03-18T04:48:31;64.40;;;53.60;;
38994;SDS011;24769;18.712;99.000;2023-03-18T04:50:58;68.60;;;60.00;;
38994;SDS011;24769;18.712;99.000;2023-03-18T04:53:24;70.40;;;63.00;;
38994;SDS011;24769;18.712;99.000;2023-03-18T04:55:51;68.80;;;60.20;;
38994;SDS011;24769;18.712;99.000;2023-03-18T04:58:19;65.60;;;54.80;;
38994;SDS011;24769;18.712;99.000;2023-03-18T05:00:46;71.00;;;64.20;;
38994;SDS011;24769;18.712;99.000;2023-03-18T05:03:12;71.20;;;64.00;;
38994;SDS011;24769;18.712;99.000;2023-03-18T05:05:39;71.60;;;65.40;;
38994;SDS011;24769;18.712;99.000;2023-03-18T05:08:06;71.00;;;62.60;;
38994;SDS011;24769;18.712;99.000;2023-03-18T05:10:33;71.00;;;63.20;;
38994;SDS011;24769;18.712;99.000;2023-03-18T05:12:59;72.00;;;64.60;;
38994;SDS011;24769;18.712;99.000;2023-03-18T05:15:28;72.40;;;66.40;;
38994;SDS011;24769;18.712;99.000;2023-03-18T05:17:55;69.60;;;61.40;;
38994;SDS011;24769;18.712;99.000;2023-03-18T05:20:22;70.60;;;62.20;;
38994;SDS011;24769;18.712;99.000;2023-03-18T05:22:48;69.40;;;61.00;;
38994;SDS011;24769;18.712;99.000;2023-03-18T05:25:16;71.40;;;64.20;;
38994;SDS011;24769;18.712;99.000;2023-03-18T05:27:44;74.60;;;70.80;;
38994;SDS011;24769;18.712;99.000;2023-03-18T05:30:12;70.80;;;64.20;;
38994;SDS011;24769;18.712;99.000;2023-03-18T05:32:40;71.40;;;65.00;;
38994;SDS011;24769;18.712;99.000;2023-03-18T05:35:07;69.80;;;62.60;;
38994;SDS011;24769;18.712;99.000;2023-03-18T05:37:35;70.40;;;61.20;;
38994;SDS011;24769;18.712;99.000;2023-03-18T05:40:03;68.40;;;59.20;;
38994;SDS011;24769;18.712;99.000;2023-03-18T05:42:34;71.80;;;65.20;;
38994;SDS011;24769;18.712;99.000;2023-03-18T05:45:02;68.00;;;58.40;;
38994;SDS011;24769;18.712;99.000;2023-03-18T05:47:30;68.60;;;59.80;;
38994;SDS011;24769;18.712;99.000;2023-03-18T05:49:57;73.20;;;67.40;;
38994;SDS011;24769;18.712;99.000;2023-03-18T05:52:24;69.80;;;61.80;;
38994;SDS011;24769;18.712;99.000;2023-03-18T05:54:51;70.60;;;64.40;;
38994;SDS011;24769;18.712;99.000;2023-03-18T05:57:18;71.60;;;64.80;;
38994;SDS011;24769;18.712;99.000;2023-03-18T05:59:45;71.00;;;64.60;;
38994;SDS011;24769;18.712;99.000;2023-03-18T06:02:12;73.40;;;67.60;;
38994;SDS011;24769;18.712;99.000;2023-03-18T06:04:38;72.60;;;67.40;;
38994;SDS011;24769;18.712;99.000;2023-03-18T06:07:05;72.80;;;68.60;;
38994;SDS011;24769;18.712;99.000;2023-03-18T06:09:31;71.60;;;65.40;;
38994;SDS011;24769;18.712;99.000;2023-03-18T06:12:04;68.80;;;59.20;;
38994;SDS011;24769;18.712;99.000;2023-03-18T06:14:31;70.00;;;62.40;;
38994;SDS011;24769;18.712;99.000;2023-03-18T06:16:58;69.80;;;60.40;;
38994;SDS011;24769;18.712;99.000;2023-03-18T06:19:24;72.20;;;67.60;;
38994;SDS011;24769;18.712;99.000;2023-03-18T06:21:52;71.40;;;65.20;;
38994;SDS011;24769;18.712;99.000;2023-03-18T06:24:19;73.40;;;69.40;;
38994;SDS011;24769;18.712;99.000;2023-03-18T06:26:46;71.40;;;65.40;;
38994;SDS011;24769;18.712;99.000;2023-03-18T06:29:12;71.00;;;63.80;;
38994;SDS011;24769;18.712;99.000;2023-03-18T06:31:39;73.00;;;68.40;;
38994;SDS011;24769;18.712;99.000;2023-03-18T06:34:06;73.60;;;68.40;;
38994;SDS011;24769;18.712;99.000;2023-03-18T06:36:32;74.00;;;69.00;;
38994;SDS011;24769;18.712;99.000;2023-03-18T06:38:59;70.40;;;63.80;;
38994;SDS011;24769;18.712;99.000;2023-03-18T06:41:26;71.80;;;66.40;;
38994;SDS011;24769;18.712;99.000;2023-03-18T06:43:53;71.40;;;65.40;;
38994;SDS011;24769;18.712;99.000;2023-03-18T06:46:19;72.00;;;67.00;;
38994;SDS011;24769;18.712;99.000;2023-03-18T06:48:46;71.60;;;66.80;;
38994;SDS011;24769;18.712;99.000;2023-03-18T06:51:13;70.80;;;64.80;;
38994;SDS011;24769;18.712;99.000;2023-03-18T06:53:39;73.00;;;68.60;;
38994;SDS011;24769;18.712;99.000;2023-03-18T06:56:06;72.60;;;69.00;;
38994;SDS011;24769;18.712;99.000;2023-03-18T06:58:34;69.60;;;62.20;;
38994;SDS011;24769;18.712;99.000;2023-03-18T07:01:01;71.40;;;65.40;;
38994;SDS011;24769;18.712;99.000;2023-03-18T07:03:28;66.80;;;57.80;;
38994;SDS011;24769;18.712;99.000;2023-03-18T07:05:54;70.60;;;63.20;;
38994;SDS011;24769;18.712;99.000;2023-03-18T07:08:22;68.60;;;60.20;;
38994;SDS011;24769;18.712;99.000;2023-03-18T07:10:52;63.20;;;52.20;;
38994;SDS011;24769;18.712;99.000;2023-03-18T07:13:19;64.80;;;54.20;;
38994;SDS011;24769;18.712;99.000;2023-03-18T07:15:45;67.20;;;57.80;;
38994;SDS011;24769;18.712;99.000;2023-03-18T07:18:13;61.80;;;50.60;;
38994;SDS011;24769;18.712;99.000;2023-03-18T07:20:39;69.00;;;61.00;;
38994;SDS011;24769;18.712;99.000;2023-03-18T07:23:06;67.00;;;58.00;;
38994;SDS011;24769;18.712;99.000;2023-03-18T07:25:34;69.80;;;61.80;;
38994;SDS011;24769;18.712;99.000;2023-03-18T07:28:00;67.80;;;58.80;;
38994;SDS011;24769;18.712;99.000;2023-03-18T07:30:27;62.00;;;51.00;;
38994;SDS011;24769;18.712;99.000;2023-03-18T07:32:54;60.40;;;49.60;;
38994;SDS011;24769;18.712;99.000;2023-03-18T07:35:21;64.40;;;54.20;;
38994;SDS011;24769;18.712;99.000;2023-03-18T07:37:48;61.40;;;50.80;;
38994;SDS011;24769;18.712;99.000;2023-03-18T07:40:15;61.40;;;51.00;;
38994;SDS011;24769;18.712;99.000;2023-03-18T07:42:42;62.80;;;51.20;;
38994;SDS011;24769;18.712;99.000;2023-03-18T07:45:09;62.20;;;51.40;;
38994;SDS011;24769;18.712;99.000;2023-03-18T07:47:36;60.20;;;50.00;;
38994;SDS011;24769;18.712;99.000;2023-03-18T07:50:03;63.40;;;52.80;;
38994;SDS011;24769;18.712;99.000;2023-03-18T07:52:30;64.80;;;55.00;;
38994;SDS011;24769;18.712;99.000;2023-03-18T07:54:57;60.40;;;50.00;;
38994;SDS011;24769;18.712;99.000;2023-03-18T07:57:23;60.80;;;50.20;;
38994;SDS011;24769;18.712;99.000;2023-03-18T07:59:50;65.60;;;55.20;;
38994;SDS011;24769;18.712;99.000;2023-03-18T08:02:17;64.80;;;55.60;;
38994;SDS011;24769;18.712;99.000;2023-03-18T08:04:46;62.60;;;52.00;;
38994;SDS011;24769;18.712;99.000;2023-03-18T08:07:12;59.40;;;49.00;;
38994;SDS011;24769;18.712;99.000;2023-03-18T08:09:39;61.40;;;50.80;;
38994;SDS011;24769;18.712;99.000;2023-03-18T08:12:06;62.80;;;51.60;;
38994;SDS011;24769;18.712;99.000;2023-03-18T08:14:33;60.60;;;50.40;;
38994;SDS011;24769;18.712;99.000;2023-03-18T08:17:01;56.00;;;46.80;;
38994;SDS011;24769;18.712;99.000;2023-03-18T08:19:28;55.40;;;46.40;;
38994;SDS011;24769;18.712;99.000;2023-03-18T08:21:55;47.60;;;41.00;;
38994;SDS011;24769;18.712;99.000;2023-03-18T08:24:22;46.80;;;40.60;;
38994;SDS011;24769;18.712;99.000;2023-03-18T08:26:48;44.00;;;37.80;;
38994;SDS011;24769;18.712;99.000;2023-03-18T08:29:15;45.00;;;39.00;;
38994;SDS011;24769;18.712;99.000;2023-03-18T08:31:42;40.20;;;35.40;;
38994;SDS011;24769;18.712;99.000;2023-03-18T08:34:08;47.00;;;40.60;;
38994;SDS011;24769;18.712;99.000;2023-03-18T08:36:35;45.00;;;39.00;;
38994;SDS011;24769;18.712;99.000;2023-03-18T08:39:02;49.40;;;42.20;;
38994;SDS011;24769;18.712;99.000;2023-03-18T08:41:31;59.80;;;49.80;;
38994;SDS011;24769;18.712;99.000;2023-03-18T08:43:57;62.60;;;51.80;;
38994;SDS011;24769;18.712;99.000;2023-03-18T08:46:26;60.60;;;50.00;;
38994;SDS011;24769;18.712;99.000;2023-03-18T08:48:53;57.80;;;48.60;;
38994;SDS011;24769;18.712;99.000;2023-03-18T09:56:39;51.00;;;43.75;;
38994;SDS011;24769;18.712;99.000;2023-03-18T10:05:22;52.00;;;44.00;;
38994;SDS011;24769;18.712;99.000;2023-03-18T10:07:56;52.25;;;44.50;;
38994;SDS011;24769;18.712;99.000;2023-03-18T10:10:32;50.00;;;42.50;;
38994;SDS011;24769;18.712;99.000;2023-03-18T10:13:13;49.50;;;42.75;;
38994;SDS011;24769;18.712;99.000;2023-03-18T10:15:51;54.75;;;46.50;;
38994;SDS011;24769;18.712;99.000;2023-03-18T10:18:30;53.00;;;45.25;;
38994;SDS011;24769;18.712;99.000;2023-03-18T10:29:56;57.25;;;48.25;;
38994;SDS011;24769;18.712;99.000;2023-03-18T10:32:41;56.75;;;46.25;;
38994;SDS011;24769;18.712;99.000;2023-03-18T10:41:32;52.25;;;44.75;;
38994;SDS011;24769;18.712;99.000;2023-03-18T10:44:03;56.25;;;47.00;;
38994;SDS011;24769;18.712;99.000;2023-03-18T10:46:43;54.50;;;45.75;;
38994;SDS011;24769;18.712;99.000;2023-03-18T10:49:15;54.50;;;46.25;;
38994;SDS011;24769;18.712;99.000;2023-03-18T10:51:49;56.25;;;47.25;;
38994;SDS011;24769;18.712;99.000;2023-03-18T10:54:42;58.00;;;48.75;;
38994;SDS011;24769;18.712;99.000;2023-03-18T10:57:18;52.50;;;45.00;;
38994;SDS011;24769;18.712;99.000;2023-03-18T10:59:46;58.50;;;48.75;;
38994;SDS011;24769;18.712;99.000;2023-03-18T11:02:17;58.00;;;47.75;;
38994;SDS011;24769;18.712;99.000;2023-03-18T11:04:59;61.25;;;49.75;;
38994;SDS011;24769;18.712;99.000;2023-03-18T11:07:29;59.00;;;49.25;;
38994;SDS011;24769;18.712;99.000;2023-03-18T11:10:13;60.00;;;49.50;;
38994;SDS011;24769;18.712;99.000;2023-03-18T11:12:48;62.50;;;51.00;;
38994;SDS011;24769;18.712;99.000;2023-03-18T11:15:18;62.75;;;52.00;;
38994;SDS011;24769;18.712;99.000;2023-03-18T11:17:46;59.50;;;50.25;;
38994;SDS011;24769;18.712;99.000;2023-03-18T11:22:49;53.00;;;45.25;;
38994;SDS011;24769;18.712;99.000;2023-03-18T11:25:20;60.75;;;50.75;;
38994;SDS011;24769;18.712;99.000;2023-03-18T11:27:51;61.25;;;50.75;;
38994;SDS011;24769;18.712;99.000;2023-03-18T11:30:25;61.00;;;50.25;;
38994;SDS011;24769;18.712;99.000;2023-03-18T11:32:57;55.00;;;46.75;;
38994;SDS011;24769;18.712;99.000;2023-03-18T11:38:28;57.75;;;48.75;;
38994;SDS011;24769;18.712;99.000;2023-03-18T11:41:06;54.50;;;46.25;;
38994;SDS011;24769;18.712;99.000;2023-03-18T11:43:52;56.00;;;47.25;;
38994;SDS011;24769;18.712;99.000;2023-03-18T11:49:22;55.50;;;47.25;;
38994;SDS011;24769;18.712;99.000;2023-03-18T11:51:53;56.25;;;47.25;;
38994;SDS011;24769;18.712;99.000;2023-03-18T11:55:19;54.00;;;46.00;;
38994;SDS011;24769;18.712;99.000;2023-03-18T12:06:18;59.75;;;49.50;;
38994;SDS011;24769;18.712;99.000;2023-03-18T12:16:59;60.75;;;50.25;;
38994;SDS011;24769;18.712;99.000;2023-03-18T12:46:48;58.25;;;48.25;;
38994;SDS011;24769;18.712;99.000;2023-03-18T12:49:47;64.75;;;52.75;;
38994;SDS011;24769;18.712;99.000;2023-03-18T12:55:14;62.50;;;51.25;;
38994;SDS011;24769;18.712;99.000;2023-03-18T13:06:04;58.25;;;48.25;;
38994;SDS011;24769;18.712;99.000;2023-03-18T13:16:58;63.25;;;51.50;;
38994;SDS011;24769;18.712;99.000;2023-03-18T13:19:26;61.75;;;50.75;;
38994;SDS011;24769;18.712;99.000;2023-03-18T13:21:58;62.50;;;51.75;;
38994;SDS011;24769;18.712;99.000;2023-03-18T13:27:22;63.50;;;52.25;;
38994;SDS011;24769;18.712;99.000;2023-03-18T13:30:12;63.75;;;52.25;;
38994;SDS011;24769;18.712;99.000;2023-03-18T13:41:35;63.50;;;52.50;;
38994;SDS011;24769;18.712;99.000;2023-03-18T13:43:49;62.00;;;51.25;;
38994;SDS011;24769;18.712;99.000;2023-03-18T13:46:22;65.00;;;53.75;;
38994;SDS011;24769;18.712;99.000;2023-03-18T13:48:55;65.75;;;54.75;;
38994;SDS011;24769;18.712;99.000;2023-03-18T13:53:51;68.50;;;56.00;;
38994;SDS011;24769;18.712;99.000;2023-03-18T14:04:49;67.75;;;56.00;;
38994;SDS011;24769;18.712;99.000;2023-03-18T14:07:20;64.50;;;51.75;;
38994;SDS011;24769;18.712;99.000;2023-03-18T14:14:56;63.00;;;51.50;;
38994;SDS011;24769;18.712;99.000;2023-03-18T14:20:24;70.25;;;59.25;;
38994;SDS011;24769;18.712;99.000;2023-03-18T14:22:52;69.75;;;59.00;;
38994;SDS011;24769;18.712;99.000;2023-03-18T14:28:10;64.25;;;53.25;;
38994;SDS011;24769;18.712;99.000;2023-03-18T14:30:44;61.50;;;50.75;;
38994;SDS011;24769;18.712;99.000;2023-03-18T14:35:55;66.75;;;55.25;;
38994;SDS011;24769;18.712;99.000;2023-03-18T14:38:26;67.50;;;55.25;;
38994;SDS011;24769;18.712;99.000;2023-03-18T14:41:00;67.75;;;55.00;;
38994;SDS011;24769;18.712;99.000;2023-03-18T14:43:46;69.50;;;57.00;;
38994;SDS011;24769;18.712;99.000;2023-03-18T14:46:19;65.00;;;54.25;;
38994;SDS011;24769;18.712;99.000;2023-03-18T14:48:49;63.50;;;52.50;;
38994;SDS011;24769;18.712;99.000;2023-03-18T14:51:20;55.25;;;46.50;;
38994;SDS011;24769;18.712;99.000;2023-03-18T14:56:22;62.25;;;51.75;;
38994;SDS011;24769;18.712;99.000;2023-03-18T14:58:50;63.25;;;52.25;;
38994;SDS011;24769;18.712;99.000;2023-03-18T15:01:18;63.75;;;52.25;;
38994;SDS011;24769;18.712;99.000;2023-03-18T15:03:51;66.75;;;53.75;;
38994;SDS011;24769;18.712;99.000;2023-03-18T15:06:22;64.50;;;53.00;;
38994;SDS011;24769;18.712;99.000;2023-03-18T15:09:00;59.25;;;49.25;;
38994;SDS011;24769;18.712;99.000;2023-03-18T15:11:36;66.25;;;54.00;;
38994;SDS011;24769;18.712;99.000;2023-03-18T15:16:51;66.75;;;55.00;;
38994;SDS011;24769;18.712;99.000;2023-03-18T15:19:22;65.00;;;53.75;;
38994;SDS011;24769;18.712;99.000;2023-03-18T15:21:51;65.75;;;54.50;;
38994;SDS011;24769;18.712;99.000;2023-03-18T15:24:19;58.00;;;47.75;;
38994;SDS011;24769;18.712;99.000;2023-03-18T15:27:33;62.25;;;51.50;;
38994;SDS011;24769;18.712;99.000;2023-03-18T15:29:44;61.75;;;51.25;;
38994;SDS011;24769;18.712;99.000;2023-03-18T15:34:46;64.00;;;52.25;;
38994;SDS011;24769;18.712;99.000;2023-03-18T15:37:36;68.50;;;57.50;;
38994;SDS011;24769;18.712;99.000;2023-03-18T15:56:27;64.00;;;52.33;;
38994;SDS011;24769;18.712;99.000;2023-03-18T16:01:35;64.75;;;53.25;;
38994;SDS011;24769;18.712;99.000;2023-03-18T16:04:04;65.50;;;54.50;;
38994;SDS011;24769;18.712;99.000;2023-03-18T16:06:38;62.75;;;51.50;;
38994;SDS011;24769;18.712;99.000;2023-03-18T16:09:11;66.00;;;55.00;;
38994;SDS011;24769;18.712;99.000;2023-03-18T16:11:40;64.75;;;54.25;;
38994;SDS011;24769;18.712;99.000;2023-03-18T16:14:09;66.75;;;55.00;;
38994;SDS011;24769;18.712;99.000;2023-03-18T16:16:40;67.50;;;56.00;;
38994;SDS011;24769;18.712;99.000;2023-03-18T16:19:14;69.00;;;57.75;;
38994;SDS011;24769;18.712;99.000;2023-03-18T16:21:50;68.50;;;55.50;;
38994;SDS011;24769;18.712;99.000;2023-03-18T16:24:17;65.00;;;54.25;;
38994;SDS011;24769;18.712;99.000;2023-03-18T16:26:43;70.00;;;60.00;;
38994;SDS011;24769;18.712;99.000;2023-03-18T16:29:14;69.50;;;55.75;;
38994;SDS011;24769;18.712;99.000;2023-03-18T16:32:04;68.75;;;57.00;;
38994;SDS011;24769;18.712;99.000;2023-03-18T16:34:32;69.75;;;58.25;;
38994;SDS011;24769;18.712;99.000;2023-03-18T16:36:59;67.00;;;55.50;;
38994;SDS011;24769;18.712;99.000;2023-03-18T16:39:26;65.75;;;54.25;;
38994;SDS011;24769;18.712;99.000;2023-03-18T16:41:58;65.50;;;53.50;;
38994;SDS011;24769;18.712;99.000;2023-03-18T16:44:26;69.25;;;57.50;;
38994;SDS011;24769;18.712;99.000;2023-03-18T16:46:53;61.75;;;50.50;;
38994;SDS011;24769;18.712;99.000;2023-03-18T16:49:23;70.25;;;60.00;;
38994;SDS011;24769;18.712;99.000;2023-03-18T16:51:51;67.00;;;55.75;;
38994;SDS011;24769;18.712;99.000;2023-03-18T16:54:22;65.25;;;54.00;;
38994;SDS011;24769;18.712;99.000;2023-03-18T16:56:53;67.75;;;54.75;;
38994;SDS011;24769;18.712;99.000;2023-03-18T16:59:22;69.00;;;57.50;;
38994;SDS011;24769;18.712;99.000;2023-03-18T17:01:53;69.00;;;57.75;;
38994;SDS011;24769;18.712;99.000;2023-03-18T17:04:22;66.25;;;55.00;;
38994;SDS011;24769;18.712;99.000;2023-03-18T17:06:53;67.75;;;55.75;;
38994;SDS011;24769;18.712;99.000;2023-03-18T17:09:20;67.75;;;55.75;;
38994;SDS011;24769;18.712;99.000;2023-03-18T17:11:51;69.25;;;58.00;;
38994;SDS011;24769;18.712;99.000;2023-03-18T17:19:52;72.50;;;63.25;;
38994;SDS011;24769;18.712;99.000;2023-03-18T17:22:27;68.75;;;56.50;;
38994;SDS011;24769;18.712;99.000;2023-03-18T17:24:57;65.75;;;54.50;;
38994;SDS011;24769;18.712;99.000;2023-03-18T17:27:35;66.00;;;54.25;;
38994;SDS011;24769;18.712;99.000;2023-03-18T17:30:16;63.50;;;51.75;;
38994;SDS011;24769;18.712;99.000;2023-03-18T17:32:47;65.25;;;54.25;;
38994;SDS011;24769;18.712;99.000;2023-03-18T17:35:19;66.50;;;55.00;;
38994;SDS011;24769;18.712;99.000;2023-03-18T17:37:47;66.50;;;55.25;;
38994;SDS011;24769;18.712;99.000;2023-03-18T17:40:14;69.75;;;58.75;;
38994;SDS011;24769;18.712;99.000;2023-03-18T17:42:43;69.00;;;56.50;;
38994;SDS011;24769;18.712;99.000;2023-03-18T17:48:14;68.75;;;56.75;;
38994;SDS011;24769;18.712;99.000;2023-03-18T17:50:45;66.00;;;55.00;;
38994;SDS011;24769;18.712;99.000;2023-03-18T17:55:51;66.25;;;54.75;;
38994;SDS011;24769;18.712;99.000;2023-03-18T17:58:19;67.75;;;55.75;;
38994;SDS011;24769;18.712;99.000;2023-03-18T18:00:47;67.75;;;56.00;;
38994;SDS011;24769;18.712;99.000;2023-03-18T18:03:18;69.25;;;58.50;;
38994;SDS011;24769;18.712;99.000;2023-03-18T18:05:50;68.25;;;57.00;;
38994;SDS011;24769;18.712;99.000;2023-03-18T18:08:18;69.25;;;58.50;;
38994;SDS011;24769;18.712;99.000;2023-03-18T18:10:47;66.75;;;55.50;;
38994;SDS011;24769;18.712;99.000;2023-03-18T18:13:15;70.25;;;59.50;;
38994;SDS011;24769;18.712;99.000;2023-03-18T18:15:44;69.75;;;58.75;;
38994;SDS011;24769;18.712;99.000;2023-03-18T18:18:15;69.25;;;58.75;;
38994;SDS011;24769;18.712;99.000;2023-03-18T18:20:54;71.25;;;61.00;;
38994;SDS011;24769;18.712;99.000;2023-03-18T18:23:26;69.00;;;56.75;;
38994;SDS011;24769;18.712;99.000;2023-03-18T18:25:56;64.50;;;53.75;;